createdAt,value
2022-12-06T00:12:40.611Z,3.85
2022-12-06T00:32:40.621Z,3.74
2022-12-06T00:52:40.636Z,3.63
2022-12-06T01:12:40.541Z,3.37
2022-12-06T01:32:40.552Z,3.19
2022-12-06T01:52:40.613Z,3.24
2022-12-06T02:12:40.574Z,3.36
2022-12-06T02:32:40.580Z,3.36
2022-12-06T02:52:40.591Z,3.34
2022-12-06T03:12:40.596Z,3.25
2022-12-06T03:32:40.643Z,3.07
2022-12-06T03:52:40.611Z,2.68
2022-12-06T04:12:40.613Z,2.36
2022-12-06T04:32:40.622Z,2.22
2022-12-06T04:52:40.642Z,2.09
2022-12-06T05:12:40.646Z,1.88
2022-12-06T05:32:40.659Z,1.84
2022-12-06T05:52:40.665Z,2.08
2022-12-06T06:12:40.578Z,2.08
2022-12-06T06:32:40.575Z,2.19
2022-12-06T06:52:40.644Z,2.42
2022-12-06T07:12:40.593Z,2.41
2022-12-06T07:32:40.598Z,2.49
2022-12-06T07:52:40.600Z,2.29
2022-12-06T08:12:40.617Z,2.65
2022-12-06T08:32:40.615Z,3.19
2022-12-06T08:52:40.620Z,3.62
2022-12-06T09:12:40.652Z,3.81
2022-12-06T09:32:40.744Z,3.97
2022-12-06T09:52:40.653Z,4.02
2022-12-06T10:12:40.652Z,4.12
2022-12-06T10:32:40.773Z,4.19
2022-12-06T10:52:40.663Z,4.29
2022-12-06T11:12:40.580Z,4.52
2022-12-06T11:32:40.588Z,4.65
2022-12-06T11:52:40.600Z,4.68
2022-12-06T12:12:40.602Z,4.86
2022-12-06T12:32:40.641Z,4.92
2022-12-06T12:52:40.625Z,4.92
2022-12-06T13:12:40.630Z,4.86
2022-12-06T13:32:40.644Z,4.79
2022-12-06T13:52:40.638Z,4.78
2022-12-06T14:12:40.652Z,4.76
2022-12-06T14:32:40.653Z,4.76
2022-12-06T14:52:40.654Z,4.71
2022-12-06T15:12:40.589Z,4.49
2022-12-06T15:32:40.578Z,4.26
2022-12-06T15:52:40.577Z,4.22
2022-12-06T16:12:40.584Z,4.10
2022-12-06T16:32:40.592Z,4.10
2022-12-06T16:52:40.598Z,4.07
2022-12-06T17:12:40.603Z,4.02
2022-12-06T17:32:40.609Z,4.05
2022-12-06T17:52:40.632Z,4.07
2022-12-06T18:12:40.812Z,4.12
2022-12-06T18:32:40.798Z,4.12
2022-12-06T18:52:40.831Z,4.14
2022-12-06T19:12:40.678Z,4.15
2022-12-06T19:32:40.731Z,4.14
2022-12-06T19:52:40.752Z,4.19
2022-12-06T20:12:40.786Z,4.14
2022-12-06T20:32:40.708Z,4.12
2022-12-06T20:52:40.631Z,4.01
2022-12-06T21:12:40.783Z,3.99
2022-12-06T21:32:40.656Z,3.87
2022-12-06T21:52:40.662Z,3.82
2022-12-06T22:12:40.691Z,3.83
2022-12-06T22:32:40.662Z,3.72
2022-12-06T22:52:40.525Z,3.72
2022-12-06T23:12:40.550Z,3.61
2022-12-06T23:32:40.541Z,3.53
2022-12-06T23:52:40.673Z,3.45
